Aeroporto :







RITROVATECI SU...

 
LOGIN :

Iscrizione | Disclaimer

   EN    FR    IT 

 









Sommario :    VFR   VFR Marginale   IFR   IFR Intensivo   IFR Molto Intensivo
Visibilità : 
Base nubi : 
>= 8 km
>= 3000ft
5 / 8 km
1000 / 3000 ft
1500m / 5 km
500 / 1000 ft
800 / 1500m
200 / 500 ft
< 800m
< 200 ft
Simboli :   Temporali  Nebbia  Neve Forte  Precipitazioni Forti  Vento > 20 kt






- Altitudine del aeroporto : 172 ft
- Codice IATA : YYY


CYYY - Mont Joli

ULTIMO METAR :
  • 171200Z 31012KT 30SM SCT045 BKN150 M14/M19 A3011 RMK SC2AC3 SLP203

METARs OBSOLETI :
  • 171100Z 31015KT 15SM FEW045 BKN075 BKN100 M13/M19 A3008 RMK SC2AC3AC1 SLP193
  • 171000Z 31011G17KT 15SM BKN060 M12/M20 A3006 RMK SC7 SLP185

TAF TAF CYYY
Valido dal 17 a 08 ore il 17 a 20 ore UTC


170738Z 1708/1720 33015G25KT P6SM OVC030
TEMPO 1708/1712 3SM -SHSN OVC020
FM171200 32012KT P6SM SCT030
TEMPO 1712/1718 BKN020 RMK NXT FCST BY 171400Z



MetMap, La meteo Aeronautica in un colpo d'occhio ! - Copyright ORBIFLY Dicembre 2007 - Disclaimer

ORBIFLY MET'MAP TEAM :

Programmazione e sviluppo : Alexandra Zaïnal
Concezione : Baudouin d'Aumeries
Aiuto per la programmazione : Marc-Olivier Méhu
Supporto tecnico e logistico : Manuel Goepfert
Aiuto per la traduzione : Arnaldo La Scala

Contatto : metmap@orbifly.com




FONTI E CREDITI :

   NOAA